createdAt,value
2023-12-19T00:00:35.792Z,4.20
2023-12-19T00:03:23.258Z,3.70
2023-12-19T00:05:50.658Z,3.80
2023-12-19T00:08:18.082Z,3.42
2023-12-19T00:10:45.321Z,3.20
2023-12-19T00:13:12.754Z,5.18
2023-12-19T00:15:40.716Z,4.25
2023-12-19T00:18:08.491Z,3.53
2023-12-19T00:20:35.554Z,3.28
2023-12-19T00:23:03.180Z,3.63
2023-12-19T00:25:31.546Z,3.95
2023-12-19T00:28:00.416Z,3.35
2023-12-19T00:30:30.676Z,3.50
2023-12-19T00:32:58.114Z,3.67
2023-12-19T00:35:25.265Z,3.00
2023-12-19T00:37:52.585Z,3.35
2023-12-19T00:40:19.725Z,3.30
2023-12-19T00:42:47.391Z,2.97
2023-12-19T00:45:14.637Z,3.38
2023-12-19T00:47:42.083Z,3.40
2023-12-19T00:50:09.642Z,3.30
2023-12-19T00:52:37.405Z,3.30
2023-12-19T00:55:04.916Z,3.50
2023-12-19T00:57:33.495Z,3.50
2023-12-19T01:00:02.087Z,4.20
2023-12-19T01:02:30.368Z,3.85
2023-12-19T01:04:58.532Z,4.13
2023-12-19T01:07:26.225Z,3.63
2023-12-19T01:09:54.054Z,3.92
2023-12-19T01:12:21.668Z,4.25
2023-12-19T01:14:48.824Z,3.47
2023-12-19T01:17:17.283Z,2.90
2023-12-19T01:19:44.585Z,3.25
2023-12-19T01:22:12.109Z,3.25
2023-12-19T01:24:39.199Z,3.15
2023-12-19T01:27:06.735Z,3.22
2023-12-19T01:29:33.897Z,3.10
2023-12-19T01:32:01.249Z,3.00
2023-12-19T01:34:28.467Z,3.00
2023-12-19T01:36:57.866Z,2.80
2023-12-19T01:39:26.073Z,2.95
2023-12-19T01:41:53.629Z,2.95
2023-12-19T01:44:21.235Z,3.20
2023-12-19T01:46:48.576Z,3.30
2023-12-19T01:49:16.304Z,2.97
2023-12-19T01:51:44.052Z,3.80
2023-12-19T01:54:12.230Z,3.33
2023-12-19T01:56:40.912Z,3.60
2023-12-19T01:59:09.293Z,3.63
2023-12-19T02:01:37.404Z,4.00
2023-12-19T02:04:05.040Z,4.50
2023-12-19T02:06:35.926Z,4.55
2023-12-19T02:09:03.859Z,4.30
2023-12-19T02:11:31.325Z,3.83
2023-12-19T02:13:59.738Z,4.25
2023-12-19T02:16:27.829Z,4.03
2023-12-19T02:19:05.706Z,4.22
2023-12-19T02:21:33.606Z,4.70
2023-12-19T02:27:38.760Z,3.75
2023-12-19T02:30:06.679Z,4.40
2023-12-19T02:32:35.881Z,4.55
2023-12-19T02:35:02.936Z,4.32
2023-12-19T02:37:30.728Z,4.85
2023-12-19T02:39:57.886Z,4.40
2023-12-19T02:42:25.450Z,4.10
2023-12-19T02:44:52.681Z,4.38
2023-12-19T02:47:20.127Z,4.43
2023-12-19T02:49:47.328Z,5.25
2023-12-19T02:52:15.696Z,4.95
2023-12-19T02:54:42.733Z,4.97
2023-12-19T02:57:10.132Z,5.18
2023-12-19T02:59:37.286Z,5.25
2023-12-19T03:02:04.765Z,5.60
2023-12-19T03:04:31.950Z,5.72
2023-12-19T03:06:59.385Z,5.47
2023-12-19T03:09:26.447Z,5.65
2023-12-19T03:12:04.373Z,6.20
2023-12-19T03:14:32.538Z,5.43
2023-12-19T03:17:00.993Z,5.88
2023-12-19T03:19:28.437Z,6.32
2023-12-19T03:21:56.369Z,6.10
2023-12-19T03:24:24.151Z,6.20
2023-12-19T03:26:51.586Z,5.38
2023-12-19T03:29:18.656Z,5.13
2023-12-19T03:31:45.990Z,5.40
2023-12-19T03:34:13.140Z,5.20
2023-12-19T03:36:40.595Z,4.90
2023-12-19T03:39:08.059Z,5.15
2023-12-19T03:41:35.374Z,5.05
2023-12-19T03:44:03.979Z,4.82
2023-12-19T03:46:31.446Z,5.22
2023-12-19T03:48:58.652Z,4.95
2023-12-19T03:51:26.247Z,5.43
2023-12-19T03:53:53.482Z,4.70
2023-12-19T03:56:20.952Z,5.03
2023-12-19T03:58:47.972Z,5.63
2023-12-19T04:01:18.772Z,5.50
2023-12-19T04:03:46.165Z,4.47
2023-12-19T04:06:13.943Z,4.60
2023-12-19T04:08:41.125Z,4.82
2023-12-19T04:11:08.474Z,4.72
2023-12-19T04:13:38.304Z,4.60
2023-12-19T04:16:08.549Z,4.38
2023-12-19T04:21:04.016Z,3.83
2023-12-19T04:23:31.160Z,3.80
2023-12-19T04:26:00.484Z,4.03
2023-12-19T04:28:27.713Z,4.75
2023-12-19T04:30:55.223Z,4.78
2023-12-19T04:33:22.619Z,4.50
2023-12-19T04:35:50.126Z,4.57
2023-12-19T04:38:17.305Z,4.20
2023-12-19T04:40:44.634Z,4.22
2023-12-19T04:43:11.838Z,4.18
2023-12-19T04:45:39.443Z,4.35
2023-12-19T04:48:06.798Z,4.28
2023-12-19T04:50:35.247Z,4.95
2023-12-19T04:53:02.294Z,4.32
2023-12-19T04:55:29.604Z,4.97
2023-12-19T04:57:56.717Z,4.75
2023-12-19T05:00:24.099Z,4.28
2023-12-19T05:02:53.557Z,5.43
2023-12-19T05:05:23.938Z,4.82
2023-12-19T05:07:50.999Z,5.28
2023-12-19T05:10:18.361Z,5.60
2023-12-19T05:12:45.708Z,5.05
2023-12-19T05:15:13.293Z,5.13
2023-12-19T05:17:40.479Z,6.22
2023-12-19T05:20:08.532Z,5.68
2023-12-19T05:22:35.789Z,5.95
2023-12-19T05:25:03.351Z,5.40
2023-12-19T05:27:30.870Z,5.50
2023-12-19T05:29:58.276Z,6.63
2023-12-19T05:32:25.495Z,6.07
2023-12-19T05:34:52.875Z,5.80
2023-12-19T05:37:20.094Z,5.55
2023-12-19T05:39:47.495Z,5.60
2023-12-19T05:42:14.660Z,7.57
2023-12-19T05:44:42.030Z,5.38
2023-12-19T05:47:09.268Z,4.90
2023-12-19T05:49:36.816Z,5.63
2023-12-19T05:52:04.266Z,5.65
2023-12-19T05:54:31.739Z,6.22
2023-12-19T05:56:58.775Z,6.10
2023-12-19T05:59:26.377Z,5.60
2023-12-19T06:01:53.852Z,8.00
2023-12-19T06:04:21.652Z,7.07
2023-12-19T06:06:48.969Z,9.45
2023-12-19T06:09:16.367Z,8.45
2023-12-19T06:11:43.525Z,6.82
2023-12-19T06:14:10.849Z,7.38
2023-12-19T06:16:37.994Z,8.77
2023-12-19T06:19:07.036Z,7.80
2023-12-19T06:21:34.455Z,5.20
2023-12-19T06:24:02.394Z,5.68
2023-12-19T06:26:29.578Z,4.85
2023-12-19T06:28:57.178Z,5.45
2023-12-19T06:31:24.495Z,4.88
2023-12-19T06:33:51.997Z,4.65
2023-12-19T06:36:30.058Z,4.80
2023-12-19T06:38:57.626Z,4.22
2023-12-19T06:41:24.684Z,4.43
2023-12-19T06:43:52.155Z,4.03
2023-12-19T06:46:19.265Z,4.40
2023-12-19T06:48:46.877Z,4.20
2023-12-19T06:51:27.719Z,4.78
2023-12-19T06:53:56.660Z,3.97
2023-12-19T06:56:28.497Z,4.10
2023-12-19T06:58:56.791Z,4.25
2023-12-19T07:01:24.943Z,5.43
2023-12-19T07:03:52.682Z,4.00
2023-12-19T07:06:19.950Z,4.70
2023-12-19T07:08:48.708Z,5.80
2023-12-19T07:11:17.826Z,4.90
2023-12-19T07:13:45.495Z,4.72
2023-12-19T07:16:19.081Z,4.55
2023-12-19T07:18:48.036Z,5.90
2023-12-19T07:21:25.982Z,5.07
2023-12-19T07:23:54.914Z,5.82
2023-12-19T07:26:29.281Z,5.07
2023-12-19T07:28:58.489Z,6.20
2023-12-19T07:31:32.577Z,4.95
2023-12-19T07:34:05.556Z,5.25
2023-12-19T07:36:34.333Z,5.53
2023-12-19T07:39:01.930Z,4.70
2023-12-19T07:41:29.232Z,8.07
2023-12-19T07:43:57.265Z,7.75
2023-12-19T07:46:24.626Z,15.93
2023-12-19T07:48:52.792Z,5.35
2023-12-19T07:51:24.269Z,5.15
2023-12-19T07:53:52.453Z,5.32
2023-12-19T07:56:19.542Z,7.00
2023-12-19T07:58:47.740Z,6.20
2023-12-19T08:01:15.869Z,4.70
2023-12-19T08:03:45.372Z,6.47
2023-12-19T08:06:13.163Z,7.37
2023-12-19T08:08:43.450Z,6.00
2023-12-19T08:11:10.726Z,4.82
2023-12-19T08:13:38.097Z,7.18
2023-12-19T08:16:06.582Z,6.25
2023-12-19T08:18:34.587Z,8.55
2023-12-19T08:21:04.310Z,7.97
2023-12-19T08:25:58.737Z,6.65
2023-12-19T08:28:26.182Z,27.50
2023-12-19T08:30:53.437Z,14.57
2023-12-19T08:33:21.764Z,16.98
2023-12-19T08:35:50.232Z,6.78
2023-12-19T08:38:17.560Z,6.15
2023-12-19T08:40:44.676Z,19.55
2023-12-19T08:43:12.648Z,39.78
2023-12-19T08:45:39.862Z,20.90
2023-12-19T08:48:07.679Z,11.88
2023-12-19T08:50:35.159Z,18.55
2023-12-19T08:53:02.477Z,13.23
2023-12-19T08:55:31.516Z,15.52
2023-12-19T08:57:59.030Z,12.95
2023-12-19T09:00:26.108Z,8.10
2023-12-19T09:02:53.526Z,23.27
2023-12-19T09:05:20.770Z,36.47
2023-12-19T09:07:48.522Z,6.75
2023-12-19T09:10:17.267Z,10.13
2023-12-19T09:12:45.396Z,7.50
2023-12-19T09:15:12.719Z,9.00
2023-12-19T09:17:40.718Z,21.17
2023-12-19T09:20:09.528Z,11.20
2023-12-19T09:22:37.429Z,7.65
2023-12-19T09:25:05.024Z,8.35
2023-12-19T09:27:32.976Z,9.00
2023-12-19T09:30:00.062Z,9.38
2023-12-19T09:32:27.446Z,14.48
2023-12-19T09:34:55.394Z,11.85
2023-12-19T09:37:27.411Z,9.00
2023-12-19T09:39:55.928Z,15.90
2023-12-19T09:44:52.328Z,17.23
2023-12-19T09:47:25.057Z,13.90
2023-12-19T09:50:04.356Z,13.98
2023-12-19T09:52:35.335Z,10.88
2023-12-19T09:55:05.264Z,18.05
2023-12-19T09:57:37.184Z,14.05
2023-12-19T10:00:08.784Z,19.85
2023-12-19T10:02:37.172Z,16.08
2023-12-19T10:05:05.864Z,30.55
2023-12-19T10:07:36.261Z,93.20
2023-12-19T10:10:04.765Z,147.82
2023-12-19T10:12:37.105Z,14.65
2023-12-19T10:15:15.548Z,20.52
2023-12-19T10:18:07.171Z,18.15
2023-12-19T10:20:34.541Z,22.15
2023-12-19T10:23:08.612Z,18.23
2023-12-19T10:25:43.387Z,12.10
2023-12-19T10:28:17.551Z,17.02
2023-12-19T10:30:45.794Z,13.90
2023-12-19T10:33:15.575Z,9.95
2023-12-19T10:35:47.231Z,11.82
2023-12-19T10:38:14.864Z,19.45
2023-12-19T10:40:42.329Z,12.10
2023-12-19T10:43:09.606Z,9.07
2023-12-19T10:45:39.727Z,10.30
2023-12-19T10:48:07.614Z,7.43
2023-12-19T10:50:35.409Z,7.55
2023-12-19T10:53:06.458Z,7.80
2023-12-19T10:55:41.615Z,7.90
2023-12-19T10:58:11.106Z,7.22
2023-12-19T11:03:19.824Z,7.40
2023-12-19T11:05:51.804Z,6.95
2023-12-19T11:08:20.733Z,8.13
2023-12-19T11:11:13.960Z,12.98
2023-12-19T11:13:44.240Z,10.05
2023-12-19T11:16:27.451Z,6.40
2023-12-19T11:19:05.631Z,8.65
2023-12-19T11:21:49.478Z,7.07
2023-12-19T11:24:23.359Z,6.55
2023-12-19T11:27:01.298Z,12.90
2023-12-19T11:29:46.120Z,7.78
2023-12-19T11:32:28.940Z,8.55
2023-12-19T11:35:08.073Z,7.88
2023-12-19T11:37:35.994Z,8.82
2023-12-19T11:40:04.863Z,6.47
2023-12-19T11:42:42.082Z,5.50
2023-12-19T11:45:18.833Z,6.72
2023-12-19T11:47:49.847Z,4.03
2023-12-19T11:50:43.568Z,6.93
2023-12-19T11:53:11.298Z,5.78
2023-12-19T11:55:38.361Z,17.73
2023-12-19T11:58:13.273Z,7.15
2023-12-19T12:00:44.385Z,4.07
2023-12-19T12:03:13.841Z,9.27
2023-12-19T12:05:41.369Z,4.70
2023-12-19T12:08:14.731Z,17.85
2023-12-19T12:10:42.190Z,16.17
2023-12-19T12:13:09.660Z,13.98
2023-12-19T12:15:39.420Z,9.20
2023-12-19T12:18:23.789Z,17.80
2023-12-19T12:20:52.368Z,22.25
2023-12-19T12:23:20.747Z,14.75
2023-12-19T12:25:57.851Z,13.23
2023-12-19T12:28:29.772Z,15.15
2023-12-19T12:30:57.963Z,12.90
2023-12-19T12:33:26.973Z,16.10
2023-12-19T12:35:55.160Z,12.05
2023-12-19T12:38:24.301Z,14.02
2023-12-19T12:41:00.139Z,8.23
2023-12-19T12:43:35.081Z,8.93
2023-12-19T12:46:06.523Z,10.57
2023-12-19T12:48:34.733Z,11.70
2023-12-19T12:51:05.787Z,10.13
2023-12-19T12:53:34.618Z,12.88
2023-12-19T12:56:07.934Z,8.88
2023-12-19T12:58:37.028Z,14.15
2023-12-19T13:01:05.033Z,7.40
2023-12-19T13:03:33.615Z,9.27
2023-12-19T13:06:02.380Z,17.48
2023-12-19T13:08:30.596Z,11.23
2023-12-19T13:10:58.924Z,10.82
2023-12-19T13:13:26.290Z,11.25
2023-12-19T13:15:54.519Z,10.65
2023-12-19T13:18:23.141Z,9.80
2023-12-19T13:20:51.386Z,5.65
2023-12-19T13:23:19.157Z,20.75
2023-12-19T13:25:47.508Z,12.30
2023-12-19T13:28:16.051Z,8.98
2023-12-19T13:30:43.799Z,9.68
2023-12-19T13:33:12.876Z,10.05
2023-12-19T13:35:43.577Z,14.77
2023-12-19T13:38:11.195Z,11.70
2023-12-19T13:40:38.515Z,9.45
2023-12-19T13:43:07.072Z,10.38
2023-12-19T13:45:35.524Z,11.25
2023-12-19T13:48:05.558Z,8.10
2023-12-19T13:53:01.116Z,17.48
2023-12-19T13:55:28.454Z,12.95
2023-12-19T13:57:55.991Z,11.13
2023-12-19T14:03:01.101Z,12.98
2023-12-19T14:05:29.572Z,10.10
2023-12-19T14:07:57.679Z,11.57
2023-12-19T14:10:25.425Z,11.98
2023-12-19T14:12:53.040Z,13.38
2023-12-19T14:15:20.918Z,12.77
2023-12-19T14:17:48.827Z,17.40
2023-12-19T14:20:16.721Z,17.67
2023-12-19T14:22:44.557Z,19.67
2023-12-19T14:25:12.485Z,17.20
2023-12-19T14:27:40.668Z,11.90
2023-12-19T14:30:10.622Z,13.35
2023-12-19T14:32:39.862Z,11.75
2023-12-19T14:35:10.178Z,16.63
2023-12-19T14:37:38.140Z,11.40
2023-12-19T14:40:05.866Z,11.32
2023-12-19T14:42:33.714Z,9.85
2023-12-19T14:45:00.969Z,8.48
2023-12-19T14:47:30.386Z,10.70
2023-12-19T14:49:58.570Z,9.73
2023-12-19T14:52:27.054Z,10.88
2023-12-19T14:54:54.415Z,9.68
2023-12-19T14:57:26.212Z,9.68
2023-12-19T14:59:54.543Z,8.20
2023-12-19T15:02:22.394Z,10.70
2023-12-19T15:04:49.920Z,9.05
2023-12-19T15:07:17.616Z,11.52
2023-12-19T15:09:45.756Z,8.57
2023-12-19T15:12:13.296Z,7.40
2023-12-19T15:14:40.393Z,7.55
2023-12-19T15:17:07.893Z,8.18
2023-12-19T15:19:37.446Z,8.30
2023-12-19T15:22:04.833Z,12.18
2023-12-19T15:24:35.947Z,8.00
2023-12-19T15:27:05.229Z,12.80
2023-12-19T15:29:33.056Z,9.15
2023-12-19T15:32:00.796Z,9.73
2023-12-19T15:34:30.213Z,18.50
2023-12-19T15:36:58.726Z,88.22
2023-12-19T15:39:25.802Z,68.57
2023-12-19T15:41:53.437Z,111.32
2023-12-19T15:44:23.069Z,88.55
2023-12-19T15:46:50.867Z,149.15
2023-12-19T15:49:18.760Z,73.28
2023-12-19T15:51:46.298Z,37.60
2023-12-19T15:54:13.696Z,48.45
2023-12-19T15:56:43.892Z,28.85
2023-12-19T16:01:38.924Z,6.72
2023-12-19T16:04:06.270Z,57.47
2023-12-19T16:06:34.606Z,38.22
2023-12-19T16:09:01.874Z,26.08
2023-12-19T16:11:29.586Z,20.77
2023-12-19T16:13:57.634Z,16.25
2023-12-19T16:16:25.120Z,15.40
2023-12-19T16:18:53.731Z,23.73
2023-12-19T16:21:23.404Z,23.73
2023-12-19T16:26:34.886Z,23.80
2023-12-19T16:29:02.373Z,31.40
2023-12-19T16:31:30.402Z,21.45
2023-12-19T16:33:57.891Z,38.85
2023-12-19T16:36:25.346Z,13.00
2023-12-19T16:38:53.181Z,15.30
2023-12-19T16:41:23.495Z,14.25
2023-12-19T16:43:51.656Z,12.00
2023-12-19T16:46:23.073Z,24.45
2023-12-19T16:48:55.086Z,9.90
2023-12-19T16:51:23.642Z,12.50
2023-12-19T16:53:53.492Z,10.48
2023-12-19T16:56:20.835Z,9.90
2023-12-19T16:58:48.834Z,10.90
2023-12-19T17:01:16.839Z,10.68
2023-12-19T17:03:45.269Z,8.50
2023-12-19T17:06:12.898Z,8.00
2023-12-19T17:08:40.763Z,8.13
2023-12-19T17:11:08.968Z,12.02
2023-12-19T17:13:36.674Z,8.20
2023-12-19T17:16:04.936Z,9.27
2023-12-19T17:18:32.445Z,10.50
2023-12-19T17:20:59.855Z,12.43
2023-12-19T17:23:35.961Z,10.05
2023-12-19T17:26:07.807Z,8.82
2023-12-19T17:28:34.974Z,18.23
2023-12-19T17:31:03.012Z,10.80
2023-12-19T17:33:53.658Z,14.50
2023-12-19T17:36:22.680Z,17.58
2023-12-19T17:38:49.742Z,25.20
2023-12-19T17:41:17.580Z,24.30
2023-12-19T17:43:44.981Z,50.83
2023-12-19T17:46:12.546Z,43.72
2023-12-19T17:48:39.650Z,13.60
2023-12-19T17:51:07.807Z,25.23
2023-12-19T17:53:34.927Z,28.77
2023-12-19T17:56:02.388Z,17.00
2023-12-19T17:58:29.546Z,5.32
2023-12-19T18:00:57.197Z,12.85
2023-12-19T18:03:25.160Z,10.15
2023-12-19T18:05:55.400Z,11.55
2023-12-19T18:10:50.549Z,5.38
2023-12-19T18:13:17.988Z,14.75
2023-12-19T18:15:45.330Z,9.55
2023-12-19T18:18:14.885Z,7.15
2023-12-19T18:20:58.023Z,9.60
2023-12-19T18:23:25.978Z,7.53
2023-12-19T18:25:54.521Z,7.65
2023-12-19T18:28:21.908Z,9.32
2023-12-19T18:30:49.326Z,7.43
2023-12-19T18:33:16.702Z,9.13
2023-12-19T18:35:44.191Z,5.32
2023-12-19T18:38:11.385Z,6.35
2023-12-19T18:40:38.802Z,15.43
2023-12-19T18:43:05.947Z,10.50
2023-12-19T18:45:33.271Z,11.48
2023-12-19T18:48:00.437Z,16.30
2023-12-19T18:50:28.150Z,11.75
2023-12-19T18:52:55.438Z,10.85
2023-12-19T18:55:23.903Z,7.00
2023-12-19T18:57:51.310Z,7.22
2023-12-19T19:00:20.141Z,10.73
2023-12-19T19:02:47.360Z,6.72
2023-12-19T19:05:15.307Z,8.10
2023-12-19T19:07:43.772Z,7.53
2023-12-19T19:10:15.138Z,11.38
2023-12-19T19:12:42.751Z,6.28
2023-12-19T19:15:36.387Z,5.72
2023-12-19T19:18:10.968Z,5.82
2023-12-19T19:20:43.910Z,4.30
2023-12-19T19:23:18.148Z,4.22
2023-12-19T19:25:46.651Z,5.53
2023-12-19T19:28:14.834Z,6.25
2023-12-19T19:30:45.717Z,7.00
2023-12-19T19:33:16.792Z,8.52
2023-12-19T19:35:44.422Z,4.43
2023-12-19T19:38:12.254Z,6.05
2023-12-19T19:40:44.661Z,5.32
2023-12-19T19:43:12.119Z,5.35
2023-12-19T19:45:39.641Z,6.47
2023-12-19T19:48:07.282Z,6.70
2023-12-19T19:50:35.711Z,5.00
2023-12-19T19:53:03.131Z,6.47
2023-12-19T19:55:32.322Z,5.78
2023-12-19T19:58:00.251Z,5.27
2023-12-19T20:00:28.156Z,5.38
2023-12-19T20:02:55.418Z,5.57
2023-12-19T20:05:23.201Z,5.68
2023-12-19T20:07:56.423Z,5.15
2023-12-19T20:10:24.482Z,4.63
2023-12-19T20:12:51.891Z,4.80
2023-12-19T20:15:19.507Z,3.70
2023-12-19T20:17:46.581Z,3.53
2023-12-19T20:20:14.545Z,3.88
2023-12-19T20:22:42.877Z,4.30
2023-12-19T20:25:12.295Z,4.30
2023-12-19T20:27:39.429Z,3.47
2023-12-19T20:30:07.651Z,4.25
2023-12-19T20:32:34.856Z,4.03
2023-12-19T20:35:02.453Z,3.08
2023-12-19T20:37:29.778Z,4.20
2023-12-19T20:39:57.265Z,3.67
2023-12-19T20:42:24.456Z,2.88
2023-12-19T20:44:51.912Z,3.28
2023-12-19T20:47:19.024Z,4.10
2023-12-19T20:49:46.499Z,4.70
2023-12-19T20:52:13.676Z,3.80
2023-12-19T20:54:41.102Z,3.33
2023-12-19T20:57:08.821Z,2.60
2023-12-19T20:59:37.889Z,2.83
2023-12-19T21:02:07.454Z,2.50
2023-12-19T21:04:35.187Z,2.80
2023-12-19T21:07:03.336Z,2.08
2023-12-19T21:09:30.573Z,3.25
2023-12-19T21:11:58.086Z,2.83
2023-12-19T21:14:25.913Z,2.70
2023-12-19T21:17:02.455Z,3.22
2023-12-19T21:19:34.967Z,4.13
2023-12-19T21:22:02.604Z,3.40
2023-12-19T21:24:29.885Z,4.10
2023-12-19T21:26:57.440Z,3.33
2023-12-19T21:29:24.604Z,2.97
2023-12-19T21:31:52.530Z,2.97
2023-12-19T21:34:19.937Z,3.03
2023-12-19T21:36:48.726Z,3.97
2023-12-19T21:39:16.788Z,4.15
2023-12-19T21:41:46.338Z,2.83
2023-12-19T21:44:13.961Z,4.07
2023-12-19T21:46:41.331Z,4.38
2023-12-19T21:49:08.608Z,2.85
2023-12-19T21:51:39.141Z,3.67
2023-12-19T21:54:09.639Z,4.43
2023-12-19T21:56:38.143Z,3.65
2023-12-19T21:59:06.262Z,3.53
2023-12-19T22:01:34.891Z,3.50
2023-12-19T22:04:02.374Z,3.85
2023-12-19T22:06:30.580Z,8.93
2023-12-19T22:08:57.971Z,10.32
2023-12-19T22:11:25.434Z,5.65
2023-12-19T22:13:54.272Z,4.30
2023-12-19T22:16:22.656Z,7.65
2023-12-19T22:18:50.412Z,5.95
2023-12-19T22:21:23.748Z,3.50
2023-12-19T22:23:51.734Z,5.55
2023-12-19T22:26:22.582Z,4.90
2023-12-19T22:28:49.711Z,3.80
2023-12-19T22:31:17.984Z,3.70
2023-12-19T22:33:46.621Z,3.00
2023-12-19T22:36:14.283Z,3.20
2023-12-19T22:38:42.010Z,2.88
2023-12-19T22:41:09.419Z,3.20
2023-12-19T22:43:36.639Z,3.30
2023-12-19T22:46:04.207Z,3.03
2023-12-19T22:48:31.439Z,2.80
2023-12-19T22:50:58.900Z,2.30
2023-12-19T22:53:26.363Z,2.58
2023-12-19T22:55:53.918Z,2.85
2023-12-19T22:58:21.140Z,2.67
2023-12-19T23:00:48.777Z,2.40
2023-12-19T23:03:19.591Z,3.05
2023-12-19T23:05:47.285Z,2.83
2023-12-19T23:08:14.494Z,2.65
2023-12-19T23:10:41.971Z,3.35
2023-12-19T23:13:09.326Z,2.80
2023-12-19T23:15:37.182Z,3.00
2023-12-19T23:18:05.460Z,2.70
2023-12-19T23:20:34.086Z,2.55
2023-12-19T23:23:01.736Z,2.85
2023-12-19T23:25:29.455Z,3.40
2023-12-19T23:27:58.597Z,3.45
2023-12-19T23:30:26.276Z,2.90
2023-12-19T23:32:53.420Z,3.13
2023-12-19T23:35:20.748Z,2.67
2023-12-19T23:37:47.880Z,3.13
2023-12-19T23:40:15.675Z,2.97
2023-12-19T23:42:42.797Z,3.13
2023-12-19T23:45:10.911Z,2.72
2023-12-19T23:47:38.110Z,2.33
2023-12-19T23:50:06.500Z,2.78
2023-12-19T23:52:33.580Z,2.63
2023-12-19T23:55:01.065Z,2.10
2023-12-19T23:57:28.237Z,2.55
2023-12-19T23:59:55.604Z,2.28
